AAY1559 KLAS-KATW
Flight info
| Callsign | AAY1559 |
|---|---|
| Flight time | 3h 6m |
| Altitude | 35000 |
| Route | GIDGT3 TUKRR DVC TXC GRI DBQ CORIR OSH |
| Aircraft | A320/M-SDFGHIRWYZ/SB1 |
Departure
| Time | 2026-05-08 00:27 |
|---|---|
| Airport | Harry Reid International Airport (KLAS) |
Arrival
| Time | 2026-05-08 03:33 |
|---|---|
| Airport | Appleton International Airport (KATW) |
| Time | Latitude | Longitude | Altitude | Speed | Heading |
|---|---|---|---|---|---|
| 2026-05-07 23:54 | 36.08676 | -115.15372 | 2188 ft | 0 kts | 117° |
| 2026-05-08 00:20 | 36.08676 | -115.15373 | 2188 ft | 2 kts | 117° |
| 2026-05-08 00:20 | 36.08688 | -115.15401 | 2188 ft | 4 kts | 117° |
| 2026-05-08 00:21 | 36.08700 | -115.15431 | 2188 ft | 4 kts | 117° |
| 2026-05-08 00:21 | 36.08708 | -115.15449 | 2188 ft | 0 kts | 117° |
| 2026-05-08 00:23 | 36.08707 | -115.15441 | 2188 ft | 4 kts | 95° |
| 2026-05-08 00:23 | 36.08736 | -115.15427 | 2188 ft | 11 kts | 336° |
| 2026-05-08 00:23 | 36.08805 | -115.15486 | 2189 ft | 12 kts | 336° |
| 2026-05-08 00:23 | 36.08939 | -115.15503 | 2191 ft | 16 kts | 358° |
| 2026-05-08 00:24 | 36.09008 | -115.15504 | 2190 ft | 11 kts | 360° |
| 2026-05-08 00:24 | 36.09095 | -115.15502 | 2188 ft | 7 kts | 1° |
| 2026-05-08 00:24 | 36.09181 | -115.15500 | 2192 ft | 18 kts | 4° |
| 2026-05-08 00:24 | 36.09263 | -115.15473 | 2188 ft | 18 kts | 24° |
| 2026-05-08 00:25 | 36.09382 | -115.15405 | 2188 ft | 19 kts | 24° |
| 2026-05-08 00:25 | 36.09504 | -115.15335 | 2193 ft | 20 kts | 25° |
| 2026-05-08 00:25 | 36.09621 | -115.15268 | 2189 ft | 18 kts | 25° |
| 2026-05-08 00:25 | 36.09727 | -115.15208 | 2190 ft | 16 kts | 19° |
| 2026-05-08 00:26 | 36.09806 | -115.15272 | 2188 ft | 13 kts | 295° |
| 2026-05-08 00:26 | 36.09807 | -115.15366 | 2190 ft | 11 kts | 241° |
| 2026-05-08 00:26 | 36.09654 | -115.15473 | 2190 ft | 57 kts | 205° |
| 2026-05-08 00:26 | 36.09069 | -115.15808 | 2190 ft | 125 kts | 205° |
| 2026-05-08 00:27 | 36.08117 | -115.16347 | 2330 ft | 165 kts | 204° |
| 2026-05-08 00:27 | 36.07080 | -115.16928 | 3043 ft | 163 kts | 209° |
| 2026-05-08 00:27 | 36.06280 | -115.17916 | 3701 ft | 166 kts | 247° |
| 2026-05-08 00:27 | 36.06077 | -115.19324 | 3996 ft | 177 kts | 281° |
| 2026-05-08 00:28 | 36.06387 | -115.20888 | 4112 ft | 198 kts | 285° |
| 2026-05-08 00:28 | 36.06717 | -115.22619 | 4309 ft | 217 kts | 284° |
| 2026-05-08 00:28 | 36.07042 | -115.24528 | 4589 ft | 233 kts | 283° |
| 2026-05-08 00:28 | 36.07479 | -115.26461 | 5238 ft | 234 kts | 296° |
| 2026-05-08 00:29 | 36.08494 | -115.28022 | 5872 ft | 238 kts | 323° |
| 2026-05-08 00:29 | 36.10049 | -115.28889 | 6182 ft | 253 kts | 347° |
| 2026-05-08 00:29 | 36.11791 | -115.29361 | 6729 ft | 259 kts | 347° |
| 2026-05-08 00:29 | 36.13597 | -115.29549 | 7349 ft | 264 kts | 7° |
| 2026-05-08 00:30 | 36.15338 | -115.28808 | 7977 ft | 271 kts | 31° |
| 2026-05-08 00:30 | 36.16735 | -115.27157 | 8262 ft | 288 kts | 58° |
| 2026-05-08 00:30 | 36.17637 | -115.24901 | 8769 ft | 297 kts | 69° |
| 2026-05-08 00:30 | 36.18379 | -115.22493 | 9380 ft | 301 kts | 68° |
| 2026-05-08 00:31 | 36.19123 | -115.20060 | 10013 ft | 304 kts | 71° |
| 2026-05-08 00:31 | 36.19585 | -115.17445 | 10320 ft | 322 kts | 83° |
| 2026-05-08 00:31 | 36.19642 | -115.14582 | 10455 ft | 344 kts | 89° |
| 2026-05-08 00:31 | 36.19637 | -115.11597 | 10795 ft | 356 kts | 89° |
| 2026-05-08 00:32 | 36.19632 | -115.08471 | 11382 ft | 361 kts | 89° |
| 2026-05-08 00:32 | 36.19628 | -115.05345 | 12016 ft | 364 kts | 89° |
| 2026-05-08 00:32 | 36.19626 | -115.02195 | 12644 ft | 367 kts | 89° |
| 2026-05-08 00:32 | 36.19625 | -114.99019 | 13311 ft | 370 kts | 88° |
| 2026-05-08 00:33 | 36.19623 | -114.95869 | 13967 ft | 372 kts | 88° |
| 2026-05-08 00:33 | 36.19621 | -114.92619 | 14639 ft | 374 kts | 88° |
| 2026-05-08 00:33 | 36.19618 | -114.89428 | 15252 ft | 377 kts | 88° |
| 2026-05-08 00:33 | 36.19614 | -114.86177 | 15877 ft | 379 kts | 88° |
| 2026-05-08 00:34 | 36.19609 | -114.82904 | 16484 ft | 381 kts | 88° |
| 2026-05-08 00:34 | 36.19603 | -114.79612 | 17071 ft | 384 kts | 88° |
| 2026-05-08 00:34 | 36.19595 | -114.76294 | 17631 ft | 386 kts | 88° |
| 2026-05-08 00:34 | 36.19585 | -114.72960 | 18181 ft | 389 kts | 88° |
| 2026-05-08 00:35 | 36.19576 | -114.69601 | 18704 ft | 391 kts | 88° |
| 2026-05-08 00:35 | 36.19570 | -114.66220 | 19241 ft | 394 kts | 87° |
| 2026-05-08 00:35 | 36.19565 | -114.62822 | 19757 ft | 396 kts | 87° |
| 2026-05-08 00:35 | 36.19559 | -114.59407 | 20246 ft | 398 kts | 87° |
| 2026-05-08 00:36 | 36.19552 | -114.55966 | 20721 ft | 400 kts | 87° |
| 2026-05-08 00:36 | 36.19546 | -114.52511 | 21203 ft | 402 kts | 87° |
| 2026-05-08 00:36 | 36.19536 | -114.49035 | 21646 ft | 405 kts | 87° |
| 2026-05-08 00:36 | 36.19523 | -114.45537 | 22076 ft | 408 kts | 87° |
| 2026-05-08 00:37 | 36.19506 | -114.42016 | 22519 ft | 410 kts | 87° |
| 2026-05-08 00:37 | 36.19491 | -114.38481 | 22951 ft | 412 kts | 87° |
| 2026-05-08 00:37 | 36.19476 | -114.34920 | 23354 ft | 414 kts | 87° |
| 2026-05-08 00:38 | 36.19440 | -114.27750 | 24165 ft | 419 kts | 87° |
| 2026-05-08 00:38 | 36.19467 | -114.24138 | 24561 ft | 419 kts | 82° |
| 2026-05-08 00:38 | 36.19818 | -114.20707 | 24927 ft | 419 kts | 78° |
| 2026-05-08 00:38 | 36.20263 | -114.17067 | 25305 ft | 421 kts | 78° |
| 2026-05-08 00:39 | 36.20693 | -114.13526 | 25660 ft | 422 kts | 78° |
| 2026-05-08 00:39 | 36.21133 | -114.09876 | 26029 ft | 424 kts | 78° |
| 2026-05-08 00:39 | 36.21558 | -114.06297 | 26354 ft | 426 kts | 78° |
| 2026-05-08 00:39 | 36.21987 | -114.02658 | 26700 ft | 428 kts | 78° |
| 2026-05-08 00:40 | 36.22420 | -113.99003 | 27034 ft | 430 kts | 78° |
| 2026-05-08 00:40 | 36.22853 | -113.95335 | 27364 ft | 432 kts | 78° |
| 2026-05-08 00:40 | 36.23287 | -113.91650 | 27702 ft | 433 kts | 78° |
| 2026-05-08 00:40 | 36.23720 | -113.87950 | 28022 ft | 435 kts | 78° |
| 2026-05-08 00:41 | 36.24154 | -113.84240 | 28340 ft | 436 kts | 78° |
| 2026-05-08 00:41 | 36.24590 | -113.80513 | 28648 ft | 438 kts | 78° |
| 2026-05-08 00:41 | 36.25028 | -113.76773 | 28926 ft | 439 kts | 78° |
| 2026-05-08 00:41 | 36.25464 | -113.73025 | 29198 ft | 441 kts | 78° |
| 2026-05-08 00:42 | 36.25901 | -113.69254 | 29463 ft | 443 kts | 78° |
| 2026-05-08 00:42 | 36.26337 | -113.65469 | 29728 ft | 444 kts | 78° |
| 2026-05-08 00:42 | 36.26770 | -113.61677 | 29996 ft | 445 kts | 78° |
| 2026-05-08 00:42 | 36.27201 | -113.57867 | 30227 ft | 447 kts | 78° |
| 2026-05-08 00:43 | 36.27635 | -113.54046 | 30454 ft | 449 kts | 78° |
| 2026-05-08 00:43 | 36.28074 | -113.50208 | 30691 ft | 450 kts | 78° |
| 2026-05-08 00:43 | 36.28516 | -113.46364 | 31004 ft | 450 kts | 78° |
| 2026-05-08 00:43 | 36.28954 | -113.42538 | 31331 ft | 448 kts | 78° |
| 2026-05-08 00:44 | 36.29387 | -113.38708 | 31638 ft | 448 kts | 78° |
| 2026-05-08 00:44 | 36.29817 | -113.34886 | 31946 ft | 448 kts | 78° |
| 2026-05-08 00:44 | 36.30244 | -113.31066 | 32256 ft | 447 kts | 78° |
| 2026-05-08 00:44 | 36.30672 | -113.27251 | 32549 ft | 447 kts | 78° |
| 2026-05-08 00:45 | 36.31197 | -113.23470 | 32842 ft | 443 kts | 72° |
| 2026-05-08 00:45 | 36.32138 | -113.19861 | 33118 ft | 438 kts | 64° |
| 2026-05-08 00:45 | 36.33359 | -113.16406 | 33372 ft | 437 kts | 63° |
| 2026-05-08 00:45 | 36.34583 | -113.12958 | 33644 ft | 437 kts | 63° |
| 2026-05-08 00:46 | 36.35799 | -113.09509 | 33916 ft | 436 kts | 63° |
| 2026-05-08 00:46 | 36.37014 | -113.06060 | 34192 ft | 436 kts | 63° |
| 2026-05-08 00:46 | 36.38228 | -113.02613 | 34452 ft | 435 kts | 63° |
| 2026-05-08 00:46 | 36.39437 | -112.99168 | 34716 ft | 435 kts | 63° |
| 2026-05-08 00:47 | 36.40626 | -112.95774 | 35001 ft | 434 kts | 63° |
| 2026-05-08 00:47 | 36.43026 | -112.88918 | 35119 ft | 431 kts | 63° |
| 2026-05-08 00:48 | 36.45405 | -112.82105 | 35127 ft | 429 kts | 63° |
| 2026-05-08 00:48 | 36.47780 | -112.75291 | 35130 ft | 429 kts | 63° |
| 2026-05-08 00:49 | 36.50157 | -112.68489 | 35121 ft | 429 kts | 63° |
| 2026-05-08 00:49 | 36.52523 | -112.61679 | 35107 ft | 429 kts | 63° |
| 2026-05-08 00:50 | 36.54877 | -112.54863 | 35114 ft | 428 kts | 63° |
| 2026-05-08 00:50 | 36.57221 | -112.48057 | 35130 ft | 428 kts | 63° |
| 2026-05-08 00:51 | 36.59571 | -112.41236 | 35119 ft | 429 kts | 63° |
| 2026-05-08 00:51 | 36.61922 | -112.34421 | 35110 ft | 429 kts | 63° |
| 2026-05-08 00:52 | 36.64270 | -112.27590 | 35106 ft | 429 kts | 63° |
| 2026-05-08 00:52 | 36.66610 | -112.20754 | 35098 ft | 429 kts | 63° |
| 2026-05-08 00:53 | 36.68951 | -112.13918 | 35097 ft | 429 kts | 63° |
| 2026-05-08 00:53 | 36.71289 | -112.07073 | 35092 ft | 429 kts | 63° |
| 2026-05-08 00:54 | 36.73618 | -112.00227 | 35086 ft | 429 kts | 64° |
| 2026-05-08 00:54 | 36.75939 | -111.93368 | 35084 ft | 429 kts | 63° |
| 2026-05-08 00:55 | 36.78249 | -111.86552 | 35074 ft | 430 kts | 63° |
| 2026-05-08 00:55 | 36.80572 | -111.79677 | 35070 ft | 430 kts | 63° |
| 2026-05-08 00:56 | 36.82890 | -111.72784 | 35062 ft | 431 kts | 64° |
| 2026-05-08 00:56 | 36.85210 | -111.65883 | 35049 ft | 431 kts | 63° |
| 2026-05-08 00:57 | 36.87626 | -111.59028 | 35038 ft | 431 kts | 62° |
| 2026-05-08 00:57 | 36.90156 | -111.52243 | 35030 ft | 431 kts | 61° |
| 2026-05-08 00:58 | 36.92691 | -111.45440 | 35025 ft | 432 kts | 62° |
| 2026-05-08 00:58 | 36.95188 | -111.38597 | 35022 ft | 433 kts | 62° |
| 2026-05-08 00:59 | 36.97667 | -111.31736 | 35022 ft | 433 kts | 62° |
| 2026-05-08 00:59 | 37.00151 | -111.24864 | 35023 ft | 434 kts | 62° |
| 2026-05-08 01:00 | 37.02637 | -111.17981 | 35027 ft | 434 kts | 62° |
| 2026-05-08 01:00 | 37.05124 | -111.11085 | 35028 ft | 435 kts | 62° |
| 2026-05-08 01:01 | 37.07615 | -111.04175 | 35030 ft | 435 kts | 62° |
| 2026-05-08 01:01 | 37.10102 | -110.97251 | 35031 ft | 436 kts | 62° |
| 2026-05-08 01:02 | 37.12568 | -110.90362 | 35037 ft | 437 kts | 62° |
| 2026-05-08 01:02 | 37.15059 | -110.83411 | 35040 ft | 437 kts | 62° |
| 2026-05-08 01:03 | 37.17540 | -110.76448 | 35039 ft | 437 kts | 62° |
| 2026-05-08 01:03 | 37.20011 | -110.69476 | 35037 ft | 438 kts | 62° |
| 2026-05-08 01:04 | 37.22487 | -110.62504 | 35035 ft | 438 kts | 62° |
| 2026-05-08 01:04 | 37.24964 | -110.55520 | 35031 ft | 438 kts | 62° |
| 2026-05-08 01:05 | 37.27435 | -110.48527 | 35030 ft | 438 kts | 62° |
| 2026-05-08 01:05 | 37.29906 | -110.41531 | 35025 ft | 439 kts | 62° |
| 2026-05-08 01:06 | 37.32378 | -110.34522 | 35026 ft | 439 kts | 62° |
| 2026-05-08 01:06 | 37.34845 | -110.27491 | 35030 ft | 440 kts | 62° |
| 2026-05-08 01:07 | 37.37306 | -110.20445 | 35028 ft | 440 kts | 62° |
| 2026-05-08 01:07 | 37.39767 | -110.13389 | 35031 ft | 441 kts | 62° |
| 2026-05-08 01:08 | 37.42228 | -110.06312 | 35038 ft | 442 kts | 62° |
| 2026-05-08 01:08 | 37.44694 | -109.99224 | 35048 ft | 442 kts | 62° |
| 2026-05-08 01:09 | 37.47160 | -109.92124 | 35054 ft | 443 kts | 62° |
| 2026-05-08 01:09 | 37.49625 | -109.84998 | 35065 ft | 444 kts | 62° |
| 2026-05-08 01:10 | 37.52074 | -109.77900 | 35076 ft | 445 kts | 62° |
| 2026-05-08 01:10 | 37.54540 | -109.70742 | 35078 ft | 445 kts | 62° |
| 2026-05-08 01:11 | 37.57002 | -109.63576 | 35099 ft | 446 kts | 62° |
| 2026-05-08 01:11 | 37.59458 | -109.56408 | 35108 ft | 446 kts | 62° |
| 2026-05-08 01:12 | 37.61910 | -109.49225 | 35111 ft | 446 kts | 62° |
| 2026-05-08 01:12 | 37.64362 | -109.42040 | 35113 ft | 446 kts | 62° |
| 2026-05-08 01:13 | 37.66412 | -109.36020 | 35117 ft | 446 kts | 62° |
| 2026-05-08 01:13 | 37.68840 | -109.28871 | 35126 ft | 446 kts | 62° |
| 2026-05-08 01:14 | 37.71271 | -109.21680 | 35131 ft | 445 kts | 62° |
| 2026-05-08 01:14 | 37.73702 | -109.14483 | 35142 ft | 445 kts | 62° |
| 2026-05-08 01:15 | 37.76130 | -109.07278 | 35147 ft | 446 kts | 62° |
| 2026-05-08 01:15 | 37.78553 | -109.00067 | 35151 ft | 446 kts | 62° |
| 2026-05-08 01:16 | 37.80971 | -108.92845 | 35155 ft | 447 kts | 62° |
| 2026-05-08 01:16 | 37.83507 | -108.85678 | 35156 ft | 446 kts | 60° |
| 2026-05-08 01:17 | 37.86142 | -108.78570 | 35160 ft | 447 kts | 60° |
| 2026-05-08 01:17 | 37.88740 | -108.71488 | 35159 ft | 447 kts | 60° |
| 2026-05-08 01:18 | 37.91327 | -108.64321 | 35156 ft | 448 kts | 60° |
| 2026-05-08 01:18 | 37.93910 | -108.57152 | 35163 ft | 447 kts | 60° |
| 2026-05-08 01:19 | 37.96492 | -108.49970 | 35170 ft | 448 kts | 60° |
| 2026-05-08 01:19 | 37.99076 | -108.42761 | 35168 ft | 450 kts | 60° |
| 2026-05-08 01:20 | 38.01660 | -108.35539 | 35167 ft | 450 kts | 60° |
| 2026-05-08 01:20 | 38.04241 | -108.28297 | 35174 ft | 451 kts | 60° |
| 2026-05-08 01:21 | 38.06818 | -108.21043 | 35184 ft | 451 kts | 60° |
| 2026-05-08 01:21 | 38.09391 | -108.13785 | 35192 ft | 451 kts | 60° |
| 2026-05-08 01:22 | 38.11963 | -108.06517 | 35200 ft | 452 kts | 60° |
| 2026-05-08 01:22 | 38.14542 | -107.99239 | 35203 ft | 452 kts | 60° |
| 2026-05-08 01:23 | 38.17109 | -107.91956 | 35205 ft | 452 kts | 61° |
| 2026-05-08 01:23 | 38.19671 | -107.84666 | 35204 ft | 452 kts | 60° |
| 2026-05-08 01:24 | 38.22230 | -107.77367 | 35202 ft | 453 kts | 60° |
| 2026-05-08 01:24 | 38.24768 | -107.70095 | 35196 ft | 453 kts | 61° |
| 2026-05-08 01:25 | 38.27342 | -107.62722 | 35186 ft | 453 kts | 60° |
| 2026-05-08 01:25 | 38.29904 | -107.55380 | 35183 ft | 454 kts | 60° |
| 2026-05-08 01:26 | 38.32441 | -107.48072 | 35175 ft | 455 kts | 61° |
| 2026-05-08 01:26 | 38.34990 | -107.40696 | 35174 ft | 455 kts | 60° |
| 2026-05-08 01:27 | 38.37541 | -107.33309 | 35165 ft | 456 kts | 60° |
| 2026-05-08 01:27 | 38.40097 | -107.25911 | 35162 ft | 457 kts | 60° |
| 2026-05-08 01:28 | 38.42648 | -107.18493 | 35160 ft | 457 kts | 60° |
| 2026-05-08 01:28 | 38.45204 | -107.11067 | 35157 ft | 458 kts | 61° |
| 2026-05-08 01:29 | 38.47749 | -107.03612 | 35156 ft | 459 kts | 61° |
| 2026-05-08 01:29 | 38.50290 | -106.96139 | 35154 ft | 459 kts | 61° |
| 2026-05-08 01:30 | 38.52832 | -106.88656 | 35154 ft | 459 kts | 61° |
| 2026-05-08 01:30 | 38.55378 | -106.81166 | 35158 ft | 460 kts | 61° |
| 2026-05-08 01:31 | 38.57921 | -106.73657 | 35168 ft | 460 kts | 61° |
| 2026-05-08 01:31 | 38.60452 | -106.66143 | 35219 ft | 461 kts | 61° |
| 2026-05-08 01:32 | 38.62991 | -106.58601 | 35236 ft | 462 kts | 61° |
| 2026-05-08 01:32 | 38.65513 | -106.51103 | 35273 ft | 462 kts | 61° |
| 2026-05-08 01:33 | 38.68043 | -106.43539 | 35284 ft | 463 kts | 61° |
| 2026-05-08 01:33 | 38.70573 | -106.35969 | 35283 ft | 462 kts | 61° |
| 2026-05-08 01:34 | 38.73093 | -106.28409 | 35271 ft | 462 kts | 61° |
| 2026-05-08 01:34 | 38.75614 | -106.20832 | 35254 ft | 462 kts | 61° |
| 2026-05-08 01:35 | 38.78132 | -106.13242 | 35238 ft | 463 kts | 61° |
| 2026-05-08 01:35 | 38.80649 | -106.05637 | 35185 ft | 463 kts | 61° |
| 2026-05-08 01:36 | 38.83155 | -105.98046 | 35172 ft | 463 kts | 61° |
| 2026-05-08 01:36 | 38.85655 | -105.90426 | 35160 ft | 464 kts | 62° |
| 2026-05-08 01:37 | 38.88144 | -105.82779 | 35166 ft | 465 kts | 62° |
| 2026-05-08 01:37 | 38.90652 | -105.75121 | 35196 ft | 466 kts | 61° |
| 2026-05-08 01:38 | 38.93169 | -105.67442 | 35210 ft | 467 kts | 62° |
| 2026-05-08 01:38 | 38.95677 | -105.59743 | 35243 ft | 468 kts | 62° |
| 2026-05-08 01:39 | 38.98183 | -105.52035 | 35258 ft | 467 kts | 62° |
| 2026-05-08 01:39 | 39.00660 | -105.44368 | 35266 ft | 468 kts | 62° |
| 2026-05-08 01:40 | 39.03153 | -105.36640 | 35279 ft | 468 kts | 62° |
| 2026-05-08 01:40 | 39.05642 | -105.28894 | 35277 ft | 469 kts | 62° |
| 2026-05-08 01:41 | 39.08133 | -105.21140 | 35245 ft | 469 kts | 62° |
| 2026-05-08 01:41 | 39.10617 | -105.13381 | 35192 ft | 470 kts | 62° |
| 2026-05-08 01:42 | 39.13096 | -105.05603 | 35168 ft | 469 kts | 62° |
| 2026-05-08 01:42 | 39.15573 | -104.97821 | 35127 ft | 470 kts | 62° |
| 2026-05-08 01:43 | 39.18045 | -104.90036 | 35099 ft | 469 kts | 62° |
| 2026-05-08 01:43 | 39.20510 | -104.82235 | 35085 ft | 470 kts | 62° |
| 2026-05-08 01:44 | 39.22968 | -104.74433 | 35079 ft | 470 kts | 62° |
| 2026-05-08 01:44 | 39.25429 | -104.66620 | 35072 ft | 470 kts | 62° |
| 2026-05-08 01:45 | 39.27876 | -104.58793 | 35084 ft | 470 kts | 62° |
| 2026-05-08 01:45 | 39.30333 | -104.50963 | 35080 ft | 471 kts | 62° |
| 2026-05-08 01:46 | 39.32779 | -104.43123 | 35087 ft | 471 kts | 62° |
| 2026-05-08 01:46 | 39.35229 | -104.35267 | 35077 ft | 471 kts | 62° |
| 2026-05-08 01:47 | 39.37671 | -104.27404 | 35067 ft | 472 kts | 62° |
| 2026-05-08 01:47 | 39.40112 | -104.19505 | 35056 ft | 473 kts | 62° |
| 2026-05-08 01:48 | 39.43760 | -104.07666 | 35033 ft | 473 kts | 62° |
| 2026-05-08 01:48 | 39.46188 | -103.99758 | 35022 ft | 473 kts | 62° |
| 2026-05-08 01:49 | 39.48614 | -103.91829 | 35011 ft | 474 kts | 62° |
| 2026-05-08 01:49 | 39.51033 | -103.83895 | 35006 ft | 475 kts | 62° |
| 2026-05-08 01:50 | 39.53463 | -103.75935 | 35002 ft | 475 kts | 62° |
| 2026-05-08 01:50 | 39.55887 | -103.67975 | 35000 ft | 475 kts | 62° |
| 2026-05-08 01:51 | 39.58297 | -103.59986 | 35006 ft | 476 kts | 62° |
| 2026-05-08 01:51 | 39.60685 | -103.52045 | 34991 ft | 476 kts | 62° |
| 2026-05-08 01:52 | 39.63092 | -103.44045 | 34992 ft | 476 kts | 62° |
| 2026-05-08 01:52 | 39.65502 | -103.36042 | 34983 ft | 476 kts | 62° |
| 2026-05-08 01:53 | 39.67902 | -103.28025 | 34984 ft | 477 kts | 62° |
| 2026-05-08 01:53 | 39.70293 | -103.19983 | 34986 ft | 478 kts | 63° |
| 2026-05-08 01:54 | 39.72629 | -103.11908 | 34984 ft | 478 kts | 63° |
| 2026-05-08 01:54 | 39.74935 | -103.03797 | 34981 ft | 478 kts | 63° |
| 2026-05-08 01:55 | 39.77247 | -102.95686 | 34981 ft | 479 kts | 63° |
| 2026-05-08 01:55 | 39.79568 | -102.87577 | 34977 ft | 479 kts | 63° |
| 2026-05-08 01:56 | 39.81886 | -102.79462 | 34975 ft | 479 kts | 63° |
| 2026-05-08 01:56 | 39.84191 | -102.71337 | 34974 ft | 479 kts | 63° |
| 2026-05-08 01:57 | 39.86491 | -102.63195 | 34973 ft | 479 kts | 63° |
| 2026-05-08 01:57 | 39.88791 | -102.55044 | 34970 ft | 480 kts | 63° |
| 2026-05-08 01:58 | 39.91088 | -102.46881 | 34965 ft | 480 kts | 63° |
| 2026-05-08 01:58 | 39.92989 | -102.40090 | 34959 ft | 480 kts | 63° |
| 2026-05-08 01:59 | 39.95640 | -102.30583 | 34946 ft | 480 kts | 64° |
| 2026-05-08 01:59 | 39.97919 | -102.22404 | 34941 ft | 480 kts | 63° |
| 2026-05-08 02:00 | 39.99823 | -102.15542 | 34929 ft | 480 kts | 63° |
| 2026-05-08 02:00 | 40.02090 | -102.07345 | 34933 ft | 481 kts | 64° |
| 2026-05-08 02:01 | 40.04355 | -101.99135 | 34927 ft | 481 kts | 64° |
| 2026-05-08 02:01 | 40.06597 | -101.90972 | 34924 ft | 481 kts | 64° |
| 2026-05-08 02:02 | 40.08848 | -101.82757 | 34922 ft | 481 kts | 64° |
| 2026-05-08 02:02 | 40.11091 | -101.74536 | 34920 ft | 481 kts | 64° |
| 2026-05-08 02:03 | 40.13338 | -101.66297 | 34917 ft | 481 kts | 64° |
| 2026-05-08 02:03 | 40.15578 | -101.58054 | 34914 ft | 481 kts | 64° |
| 2026-05-08 02:04 | 40.17804 | -101.49797 | 34913 ft | 482 kts | 64° |
| 2026-05-08 02:04 | 40.20035 | -101.41534 | 34921 ft | 482 kts | 64° |
| 2026-05-08 02:05 | 40.22263 | -101.33266 | 34925 ft | 482 kts | 65° |
| 2026-05-08 02:05 | 40.24483 | -101.24979 | 34924 ft | 483 kts | 65° |
| 2026-05-08 02:06 | 40.26704 | -101.16684 | 34920 ft | 483 kts | 65° |
| 2026-05-08 02:06 | 40.28913 | -101.08364 | 34918 ft | 484 kts | 66° |
| 2026-05-08 02:07 | 40.31120 | -101.00039 | 34916 ft | 484 kts | 66° |
| 2026-05-08 02:07 | 40.33330 | -100.91689 | 34911 ft | 485 kts | 66° |
| 2026-05-08 02:08 | 40.35538 | -100.83318 | 34908 ft | 486 kts | 66° |
| 2026-05-08 02:08 | 40.37740 | -100.74928 | 34899 ft | 487 kts | 67° |
| 2026-05-08 02:09 | 40.39939 | -100.66521 | 34895 ft | 487 kts | 67° |
| 2026-05-08 02:09 | 40.42135 | -100.58103 | 34889 ft | 488 kts | 67° |
| 2026-05-08 02:10 | 40.44309 | -100.49727 | 34879 ft | 489 kts | 67° |
| 2026-05-08 02:10 | 40.46509 | -100.41214 | 34875 ft | 489 kts | 67° |
| 2026-05-08 02:11 | 40.48677 | -100.32799 | 34871 ft | 490 kts | 68° |
| 2026-05-08 02:11 | 40.50859 | -100.24308 | 34871 ft | 491 kts | 68° |
| 2026-05-08 02:12 | 40.53045 | -100.15816 | 34871 ft | 491 kts | 68° |
| 2026-05-08 02:12 | 40.55217 | -100.07309 | 34869 ft | 491 kts | 68° |
| 2026-05-08 02:13 | 40.57389 | -99.98792 | 34871 ft | 491 kts | 68° |
| 2026-05-08 02:13 | 40.59551 | -99.90261 | 34872 ft | 493 kts | 68° |
| 2026-05-08 02:14 | 40.61717 | -99.81696 | 34870 ft | 493 kts | 68° |
| 2026-05-08 02:14 | 40.63877 | -99.73111 | 34876 ft | 494 kts | 68° |
| 2026-05-08 02:15 | 40.66024 | -99.64525 | 34882 ft | 494 kts | 68° |
| 2026-05-08 02:15 | 40.68172 | -99.55920 | 34885 ft | 494 kts | 68° |
| 2026-05-08 02:16 | 40.70319 | -99.47324 | 34887 ft | 494 kts | 68° |
| 2026-05-08 02:16 | 40.72458 | -99.38718 | 34890 ft | 494 kts | 68° |
| 2026-05-08 02:17 | 40.74592 | -99.30108 | 34888 ft | 494 kts | 69° |
| 2026-05-08 02:17 | 40.76706 | -99.21488 | 34887 ft | 494 kts | 69° |
| 2026-05-08 02:18 | 40.78809 | -99.12866 | 34890 ft | 494 kts | 69° |
| 2026-05-08 02:18 | 40.80901 | -99.04293 | 34888 ft | 494 kts | 69° |
| 2026-05-08 02:19 | 40.83018 | -98.95662 | 34889 ft | 495 kts | 69° |
| 2026-05-08 02:19 | 40.85126 | -98.87006 | 34886 ft | 495 kts | 69° |
| 2026-05-08 02:20 | 40.87216 | -98.78351 | 34888 ft | 495 kts | 69° |
| 2026-05-08 02:20 | 40.89303 | -98.69678 | 34890 ft | 495 kts | 69° |
| 2026-05-08 02:21 | 40.91385 | -98.60994 | 34893 ft | 496 kts | 69° |
| 2026-05-08 02:21 | 40.93472 | -98.52312 | 34898 ft | 495 kts | 69° |
| 2026-05-08 02:22 | 40.95541 | -98.43622 | 34893 ft | 496 kts | 69° |
| 2026-05-08 02:22 | 40.97606 | -98.34920 | 34896 ft | 496 kts | 69° |
| 2026-05-08 02:23 | 40.99630 | -98.26191 | 34899 ft | 496 kts | 70° |
| 2026-05-08 02:23 | 41.01572 | -98.17422 | 34903 ft | 497 kts | 71° |
| 2026-05-08 02:24 | 41.03492 | -98.08640 | 34910 ft | 496 kts | 70° |
| 2026-05-08 02:24 | 41.05424 | -97.99871 | 34912 ft | 495 kts | 70° |
| 2026-05-08 02:25 | 41.07363 | -97.91108 | 34909 ft | 496 kts | 70° |
| 2026-05-08 02:25 | 41.09303 | -97.82331 | 34907 ft | 496 kts | 71° |
| 2026-05-08 02:26 | 41.11221 | -97.73544 | 34908 ft | 496 kts | 71° |
| 2026-05-08 02:26 | 41.13129 | -97.64757 | 34911 ft | 496 kts | 71° |
| 2026-05-08 02:27 | 41.15024 | -97.55968 | 34911 ft | 495 kts | 71° |
| 2026-05-08 02:27 | 41.16926 | -97.47180 | 34909 ft | 495 kts | 71° |
| 2026-05-08 02:28 | 41.18823 | -97.38400 | 34903 ft | 495 kts | 71° |
| 2026-05-08 02:28 | 41.20707 | -97.29618 | 34899 ft | 494 kts | 71° |
| 2026-05-08 02:29 | 41.22583 | -97.20831 | 34896 ft | 494 kts | 71° |
| 2026-05-08 02:29 | 41.24430 | -97.12099 | 34896 ft | 494 kts | 71° |
| 2026-05-08 02:30 | 41.26289 | -97.03296 | 34898 ft | 495 kts | 71° |
| 2026-05-08 02:30 | 41.28144 | -96.94480 | 34899 ft | 495 kts | 71° |
| 2026-05-08 02:31 | 41.29997 | -96.85662 | 34902 ft | 495 kts | 71° |
| 2026-05-08 02:31 | 41.31842 | -96.76838 | 34905 ft | 496 kts | 72° |
| 2026-05-08 02:32 | 41.33677 | -96.67994 | 34909 ft | 496 kts | 72° |
| 2026-05-08 02:32 | 41.35509 | -96.59154 | 34916 ft | 495 kts | 72° |
| 2026-05-08 02:33 | 41.37330 | -96.50312 | 34918 ft | 495 kts | 72° |
| 2026-05-08 02:33 | 41.39137 | -96.41486 | 34920 ft | 494 kts | 72° |
| 2026-05-08 02:34 | 41.40943 | -96.32669 | 34922 ft | 493 kts | 72° |
| 2026-05-08 02:34 | 41.42741 | -96.23859 | 34931 ft | 493 kts | 72° |
| 2026-05-08 02:35 | 41.44527 | -96.15049 | 34928 ft | 492 kts | 72° |
| 2026-05-08 02:35 | 41.46302 | -96.06250 | 34926 ft | 491 kts | 72° |
| 2026-05-08 02:36 | 41.48067 | -95.97463 | 34924 ft | 490 kts | 72° |
| 2026-05-08 02:36 | 41.49812 | -95.88739 | 34912 ft | 490 kts | 72° |
| 2026-05-08 02:37 | 41.51561 | -95.79961 | 34901 ft | 490 kts | 72° |
| 2026-05-08 02:37 | 41.53300 | -95.71164 | 34893 ft | 491 kts | 72° |
| 2026-05-08 02:38 | 41.55030 | -95.62355 | 34892 ft | 491 kts | 72° |
| 2026-05-08 02:38 | 41.56779 | -95.53529 | 34898 ft | 492 kts | 72° |
| 2026-05-08 02:39 | 41.58518 | -95.44703 | 34898 ft | 492 kts | 72° |
| 2026-05-08 02:39 | 41.60243 | -95.35852 | 34896 ft | 492 kts | 72° |
| 2026-05-08 02:40 | 41.61955 | -95.26984 | 34895 ft | 494 kts | 73° |
| 2026-05-08 02:40 | 41.63662 | -95.18091 | 34891 ft | 495 kts | 72° |
| 2026-05-08 02:41 | 41.65378 | -95.09169 | 34891 ft | 496 kts | 72° |
| 2026-05-08 02:41 | 41.67099 | -95.00232 | 34894 ft | 496 kts | 72° |
| 2026-05-08 02:42 | 41.68804 | -94.91272 | 34898 ft | 498 kts | 73° |
| 2026-05-08 02:42 | 41.70500 | -94.82290 | 34901 ft | 499 kts | 72° |
| 2026-05-08 02:43 | 41.72203 | -94.73284 | 34900 ft | 499 kts | 72° |
| 2026-05-08 02:43 | 41.73904 | -94.64257 | 34901 ft | 500 kts | 72° |
| 2026-05-08 02:44 | 41.75586 | -94.55292 | 34902 ft | 500 kts | 72° |
| 2026-05-08 02:44 | 41.77264 | -94.46254 | 34907 ft | 500 kts | 73° |
| 2026-05-08 02:45 | 41.78934 | -94.37213 | 34909 ft | 500 kts | 73° |
| 2026-05-08 02:45 | 41.80597 | -94.28167 | 34911 ft | 500 kts | 72° |
| 2026-05-08 02:46 | 41.82256 | -94.19130 | 34908 ft | 499 kts | 73° |
| 2026-05-08 02:46 | 41.83629 | -94.11605 | 34911 ft | 499 kts | 73° |
| 2026-05-08 02:47 | 41.85270 | -94.02557 | 34914 ft | 499 kts | 73° |
| 2026-05-08 02:47 | 41.86908 | -93.93517 | 34916 ft | 499 kts | 73° |
| 2026-05-08 02:48 | 41.88542 | -93.84469 | 34919 ft | 499 kts | 73° |
| 2026-05-08 02:48 | 41.90168 | -93.75415 | 34919 ft | 499 kts | 73° |
| 2026-05-08 02:49 | 41.91785 | -93.66348 | 34913 ft | 500 kts | 73° |
| 2026-05-08 02:49 | 41.93394 | -93.57265 | 34909 ft | 500 kts | 73° |
| 2026-05-08 02:50 | 41.95000 | -93.48179 | 34903 ft | 500 kts | 73° |
| 2026-05-08 02:50 | 41.96601 | -93.39077 | 34897 ft | 500 kts | 73° |
| 2026-05-08 02:51 | 41.98189 | -93.29971 | 34890 ft | 501 kts | 73° |
| 2026-05-08 02:51 | 41.99768 | -93.20833 | 34887 ft | 503 kts | 73° |
| 2026-05-08 02:52 | 42.01354 | -93.11675 | 34893 ft | 503 kts | 72° |
| 2026-05-08 02:52 | 42.02934 | -93.02528 | 34903 ft | 502 kts | 72° |
| 2026-05-08 02:53 | 42.04518 | -92.93364 | 34900 ft | 503 kts | 72° |
| 2026-05-08 02:53 | 42.06083 | -92.84196 | 34897 ft | 503 kts | 72° |
| 2026-05-08 02:54 | 42.07632 | -92.75002 | 34893 ft | 504 kts | 72° |
| 2026-05-08 02:54 | 42.09171 | -92.65857 | 34892 ft | 505 kts | 72° |
| 2026-05-08 02:55 | 42.11510 | -92.51946 | 34894 ft | 506 kts | 72° |
| 2026-05-08 02:56 | 42.13048 | -92.42686 | 34895 ft | 507 kts | 72° |
| 2026-05-08 02:56 | 42.14579 | -92.33401 | 34897 ft | 508 kts | 72° |
| 2026-05-08 02:57 | 42.16099 | -92.24162 | 34898 ft | 509 kts | 72° |
| 2026-05-08 02:57 | 42.17633 | -92.14848 | 34904 ft | 510 kts | 72° |
| 2026-05-08 02:58 | 42.19152 | -92.05513 | 34912 ft | 510 kts | 72° |
| 2026-05-08 02:58 | 42.20664 | -91.96164 | 34916 ft | 511 kts | 72° |
| 2026-05-08 02:59 | 42.22171 | -91.86795 | 34923 ft | 511 kts | 72° |
| 2026-05-08 02:59 | 42.23672 | -91.77436 | 34923 ft | 511 kts | 72° |
| 2026-05-08 03:00 | 42.25177 | -91.68065 | 34924 ft | 511 kts | 72° |
| 2026-05-08 03:00 | 42.26672 | -91.58686 | 34924 ft | 511 kts | 73° |
| 2026-05-08 03:01 | 42.28141 | -91.49300 | 34917 ft | 511 kts | 73° |
| 2026-05-08 03:01 | 42.29602 | -91.39897 | 34917 ft | 511 kts | 73° |
| 2026-05-08 03:02 | 42.31061 | -91.30493 | 34912 ft | 512 kts | 73° |
| 2026-05-08 03:02 | 42.32518 | -91.21089 | 34910 ft | 511 kts | 73° |
| 2026-05-08 03:03 | 42.33974 | -91.11685 | 34912 ft | 511 kts | 73° |
| 2026-05-08 03:03 | 42.35425 | -91.02274 | 34912 ft | 512 kts | 73° |
| 2026-05-08 03:04 | 42.36862 | -90.92846 | 34910 ft | 512 kts | 73° |
| 2026-05-08 03:04 | 42.38279 | -90.83395 | 34906 ft | 513 kts | 73° |
| 2026-05-08 03:05 | 42.39814 | -90.73998 | 34903 ft | 508 kts | 66° |
| 2026-05-08 03:05 | 42.42736 | -90.65482 | 34899 ft | 492 kts | 49° |
| 2026-05-08 03:06 | 42.46453 | -90.57727 | 34894 ft | 492 kts | 49° |
| 2026-05-08 03:06 | 42.50142 | -90.49976 | 34902 ft | 493 kts | 50° |
| 2026-05-08 03:07 | 42.53875 | -90.42105 | 34921 ft | 493 kts | 50° |
| 2026-05-08 03:07 | 42.57560 | -90.34323 | 34938 ft | 494 kts | 50° |
| 2026-05-08 03:08 | 42.61255 | -90.26482 | 34944 ft | 493 kts | 50° |
| 2026-05-08 03:08 | 42.64953 | -90.18619 | 34944 ft | 493 kts | 50° |
| 2026-05-08 03:09 | 42.68639 | -90.10757 | 34949 ft | 493 kts | 50° |
| 2026-05-08 03:09 | 42.72318 | -90.02893 | 34955 ft | 493 kts | 50° |
| 2026-05-08 03:10 | 42.75998 | -89.95024 | 34949 ft | 493 kts | 50° |
| 2026-05-08 03:10 | 42.79662 | -89.87156 | 34945 ft | 493 kts | 50° |
| 2026-05-08 03:11 | 42.83326 | -89.79263 | 34938 ft | 493 kts | 50° |
| 2026-05-08 03:11 | 42.86978 | -89.71368 | 34934 ft | 493 kts | 50° |
| 2026-05-08 03:12 | 42.90638 | -89.63459 | 34936 ft | 493 kts | 50° |
| 2026-05-08 03:12 | 42.94299 | -89.55514 | 34922 ft | 495 kts | 50° |
| 2026-05-08 03:12 | 42.96127 | -89.51533 | 34619 ft | 497 kts | 50° |
| 2026-05-08 03:13 | 42.97988 | -89.47489 | 33389 ft | 509 kts | 50° |
| 2026-05-08 03:13 | 42.99874 | -89.43388 | 32644 ft | 508 kts | 50° |
| 2026-05-08 03:13 | 43.01729 | -89.39325 | 31688 ft | 500 kts | 50° |
| 2026-05-08 03:13 | 43.03553 | -89.35314 | 30734 ft | 492 kts | 50° |
| 2026-05-08 03:14 | 43.05338 | -89.31378 | 29792 ft | 484 kts | 49° |
| 2026-05-08 03:14 | 43.07096 | -89.27499 | 28929 ft | 474 kts | 49° |
| 2026-05-08 03:14 | 43.08805 | -89.23728 | 28352 ft | 458 kts | 50° |
| 2026-05-08 03:14 | 43.10455 | -89.20085 | 27804 ft | 443 kts | 49° |
| 2026-05-08 03:15 | 43.12066 | -89.16531 | 27277 ft | 437 kts | 49° |
| 2026-05-08 03:15 | 43.13670 | -89.13017 | 26755 ft | 434 kts | 49° |
| 2026-05-08 03:15 | 43.15266 | -89.09528 | 26244 ft | 430 kts | 49° |
| 2026-05-08 03:15 | 43.16845 | -89.06066 | 25738 ft | 427 kts | 50° |
| 2026-05-08 03:16 | 43.18408 | -89.02621 | 25236 ft | 424 kts | 50° |
| 2026-05-08 03:16 | 43.19955 | -88.99196 | 24730 ft | 421 kts | 50° |
| 2026-05-08 03:16 | 43.21486 | -88.95799 | 24221 ft | 418 kts | 50° |
| 2026-05-08 03:16 | 43.23003 | -88.92425 | 23727 ft | 414 kts | 50° |
| 2026-05-08 03:17 | 43.24492 | -88.89113 | 23206 ft | 412 kts | 50° |
| 2026-05-08 03:17 | 43.26009 | -88.85737 | 22683 ft | 410 kts | 51° |
| 2026-05-08 03:17 | 43.27502 | -88.82414 | 22159 ft | 408 kts | 51° |
| 2026-05-08 03:17 | 43.28967 | -88.79155 | 21648 ft | 406 kts | 51° |
| 2026-05-08 03:18 | 43.30465 | -88.75821 | 21120 ft | 404 kts | 51° |
| 2026-05-08 03:18 | 43.31935 | -88.72544 | 20603 ft | 403 kts | 51° |
| 2026-05-08 03:18 | 43.33401 | -88.69274 | 20080 ft | 402 kts | 51° |
| 2026-05-08 03:18 | 43.34864 | -88.66011 | 19562 ft | 400 kts | 51° |
| 2026-05-08 03:19 | 43.36317 | -88.62752 | 19042 ft | 399 kts | 52° |
| 2026-05-08 03:19 | 43.37738 | -88.59551 | 18582 ft | 396 kts | 52° |
| 2026-05-08 03:19 | 43.39170 | -88.56322 | 18137 ft | 393 kts | 52° |
| 2026-05-08 03:19 | 43.40588 | -88.53118 | 17618 ft | 392 kts | 52° |
| 2026-05-08 03:20 | 43.41997 | -88.49931 | 17163 ft | 390 kts | 52° |
| 2026-05-08 03:20 | 43.43403 | -88.46759 | 16774 ft | 385 kts | 51° |
| 2026-05-08 03:20 | 43.45060 | -88.43950 | 16262 ft | 371 kts | 34° |
| 2026-05-08 03:20 | 43.47146 | -88.42004 | 15778 ft | 356 kts | 17° |
| 2026-05-08 03:21 | 43.49435 | -88.40997 | 15354 ft | 340 kts | 1° |
| 2026-05-08 03:21 | 43.51742 | -88.40886 | 14928 ft | 325 kts | 347° |
| 2026-05-08 03:21 | 43.53924 | -88.41472 | 14550 ft | 317 kts | 340° |
| 2026-05-08 03:21 | 43.56061 | -88.42142 | 14174 ft | 314 kts | 341° |
| 2026-05-08 03:22 | 43.58180 | -88.42799 | 13789 ft | 311 kts | 341° |
| 2026-05-08 03:22 | 43.60276 | -88.43447 | 13424 ft | 308 kts | 341° |
| 2026-05-08 03:22 | 43.62353 | -88.44091 | 13054 ft | 304 kts | 341° |
| 2026-05-08 03:22 | 43.64410 | -88.44730 | 12685 ft | 302 kts | 341° |
| 2026-05-08 03:23 | 43.66449 | -88.45366 | 12311 ft | 299 kts | 341° |
| 2026-05-08 03:23 | 43.68482 | -88.46004 | 11934 ft | 299 kts | 341° |
| 2026-05-08 03:23 | 43.70502 | -88.46636 | 11562 ft | 297 kts | 341° |
| 2026-05-08 03:23 | 43.72514 | -88.47262 | 11186 ft | 295 kts | 342° |
| 2026-05-08 03:24 | 43.74510 | -88.47888 | 10809 ft | 293 kts | 342° |
| 2026-05-08 03:24 | 43.76488 | -88.48510 | 10434 ft | 291 kts | 342° |
| 2026-05-08 03:24 | 43.78451 | -88.49126 | 10139 ft | 286 kts | 342° |
| 2026-05-08 03:24 | 43.80356 | -88.49719 | 9983 ft | 276 kts | 342° |
| 2026-05-08 03:25 | 43.82214 | -88.50298 | 9707 ft | 274 kts | 342° |
| 2026-05-08 03:25 | 43.84075 | -88.50882 | 9323 ft | 273 kts | 343° |
| 2026-05-08 03:25 | 43.85941 | -88.51470 | 8811 ft | 276 kts | 343° |
| 2026-05-08 03:25 | 43.87671 | -88.52014 | 8534 ft | 271 kts | 343° |
| 2026-05-08 03:26 | 43.89491 | -88.52585 | 7919 ft | 267 kts | 343° |
| 2026-05-08 03:26 | 43.91293 | -88.53150 | 7247 ft | 265 kts | 343° |
| 2026-05-08 03:26 | 43.93056 | -88.53704 | 6650 ft | 261 kts | 344° |
| 2026-05-08 03:26 | 43.94810 | -88.54258 | 6132 ft | 258 kts | 344° |
| 2026-05-08 03:27 | 43.96571 | -88.54816 | 5632 ft | 260 kts | 344° |
| 2026-05-08 03:27 | 43.98319 | -88.55370 | 5390 ft | 252 kts | 344° |
| 2026-05-08 03:27 | 43.99983 | -88.55901 | 5289 ft | 239 kts | 342° |
| 2026-05-08 03:27 | 44.01392 | -88.56895 | 5191 ft | 221 kts | 315° |
| 2026-05-08 03:28 | 44.02433 | -88.58396 | 5096 ft | 213 kts | 311° |
| 2026-05-08 03:28 | 44.03446 | -88.59893 | 5005 ft | 212 kts | 311° |
| 2026-05-08 03:28 | 44.04454 | -88.61386 | 4911 ft | 212 kts | 311° |
| 2026-05-08 03:28 | 44.05549 | -88.62754 | 4767 ft | 213 kts | 326° |
| 2026-05-08 03:29 | 44.06925 | -88.63539 | 4608 ft | 217 kts | 346° |
| 2026-05-08 03:29 | 44.08436 | -88.63574 | 4401 ft | 220 kts | 8° |
| 2026-05-08 03:29 | 44.09875 | -88.62833 | 4139 ft | 222 kts | 23° |
| 2026-05-08 03:29 | 44.11263 | -88.61888 | 3841 ft | 223 kts | 24° |
| 2026-05-08 03:30 | 44.14063 | -88.59984 | 3255 ft | 225 kts | 25° |
| 2026-05-08 03:30 | 44.16419 | -88.58384 | 2752 ft | 220 kts | 26° |
| 2026-05-08 03:31 | 44.19397 | -88.56362 | 2129 ft | 187 kts | 26° |
| 2026-05-08 03:31 | 44.21178 | -88.55150 | 1735 ft | 155 kts | 26° |
| 2026-05-08 03:32 | 44.22107 | -88.54517 | 1534 ft | 145 kts | 26° |
| 2026-05-08 03:32 | 44.23000 | -88.53909 | 1351 ft | 141 kts | 26° |
| 2026-05-08 03:32 | 44.23876 | -88.53312 | 1164 ft | 140 kts | 26° |
| 2026-05-08 03:32 | 44.24733 | -88.52729 | 963 ft | 139 kts | 26° |
| 2026-05-08 03:33 | 44.25573 | -88.52156 | 893 ft | 118 kts | 26° |
| 2026-05-08 03:33 | 44.26134 | -88.51773 | 898 ft | 58 kts | 26° |
| 2026-05-08 03:33 | 44.26382 | -88.51603 | 896 ft | 25 kts | 25° |
| 2026-05-08 03:33 | 44.26524 | -88.51511 | 897 ft | 20 kts | 25° |
| 2026-05-08 03:34 | 44.26590 | -88.51432 | 898 ft | 11 kts | 73° |
| 2026-05-08 03:34 | 44.26571 | -88.51346 | 898 ft | 9 kts | 126° |
| 2026-05-08 03:34 | 44.26513 | -88.51344 | 895 ft | 10 kts | 200° |
| 2026-05-08 03:34 | 44.26451 | -88.51389 | 894 ft | 12 kts | 206° |
| 2026-05-08 03:35 | 44.26351 | -88.51457 | 894 ft | 17 kts | 206° |
| 2026-05-08 03:35 | 44.26236 | -88.51535 | 893 ft | 19 kts | 205° |
| 2026-05-08 03:35 | 44.26083 | -88.51535 | 890 ft | 9 kts | 205° |
| 2026-05-08 03:36 | 44.26032 | -88.51565 | 890 ft | 8 kts | 194° |
| 2026-05-08 03:36 | 44.25965 | -88.51570 | 890 ft | 9 kts | 180° |
| 2026-05-08 03:36 | 44.25896 | -88.51534 | 889 ft | 13 kts | 118° |
| 2026-05-08 03:36 | 44.25906 | -88.51430 | 889 ft | 7 kts | 61° |
| 2026-05-08 03:37 | 44.25943 | -88.51420 | 889 ft | 4 kts | 359° |
| 2026-05-08 03:37 | 44.25966 | -88.51420 | 889 ft | 0 kts | 359° |
| 2026-05-08 03:37 | 44.25967 | -88.51420 | 889 ft | 0 kts | 359° |
| 2026-05-08 03:43 | 44.25966 | -88.51420 | 889 ft | 0 kts | 359° |